sensor_id;sensor_type;location;lat;lon;timestamp;temperature;humidity
6164;DHT22;3114;48.362;10.994;2022-09-02T00:00:48;16.90;99.90
6164;DHT22;3114;48.362;10.994;2022-09-02T00:03:17;16.90;99.90
6164;DHT22;3114;48.362;10.994;2022-09-02T00:05:44;16.80;99.90
6164;DHT22;3114;48.362;10.994;2022-09-02T00:08:11;16.80;99.90
6164;DHT22;3114;48.362;10.994;2022-09-02T00:10:39;16.70;99.90
6164;DHT22;3114;48.362;10.994;2022-09-02T00:13:08;16.70;99.90
6164;DHT22;3114;48.362;10.994;2022-09-02T00:15:36;16.70;99.90
6164;DHT22;3114;48.362;10.994;2022-09-02T00:18:04;16.80;99.90
6164;DHT22;3114;48.362;10.994;2022-09-02T00:20:32;16.80;99.90
6164;DHT22;3114;48.362;10.994;2022-09-02T00:22:59;16.80;99.90
6164;DHT22;3114;48.362;10.994;2022-09-02T00:25:27;16.70;99.90
6164;DHT22;3114;48.362;10.994;2022-09-02T00:27:53;16.70;99.90
6164;DHT22;3114;48.362;10.994;2022-09-02T00:30:20;16.60;99.90
6164;DHT22;3114;48.362;10.994;2022-09-02T00:32:47;16.60;99.90
6164;DHT22;3114;48.362;10.994;2022-09-02T00:35:16;16.60;99.90
6164;DHT22;3114;48.362;10.994;2022-09-02T00:37:43;16.70;99.90
6164;DHT22;3114;48.362;10.994;2022-09-02T00:40:11;16.60;99.90
6164;DHT22;3114;48.362;10.994;2022-09-02T00:42:38;16.60;99.90
6164;DHT22;3114;48.362;10.994;2022-09-02T00:45:07;16.60;99.90
6164;DHT22;3114;48.362;10.994;2022-09-02T00:47:35;16.60;99.90
6164;DHT22;3114;48.362;10.994;2022-09-02T00:50:04;16.60;99.90
6164;DHT22;3114;48.362;10.994;2022-09-02T00:52:34;16.60;99.90
6164;DHT22;3114;48.362;10.994;2022-09-02T00:55:10;16.60;99.90
6164;DHT22;3114;48.362;10.994;2022-09-02T00:57:39;16.60;99.90
6164;DHT22;3114;48.362;10.994;2022-09-02T01:00:10;16.50;99.90
6164;DHT22;3114;48.362;10.994;2022-09-02T01:02:39;16.50;99.90
6164;DHT22;3114;48.362;10.994;2022-09-02T01:05:13;16.50;99.90
6164;DHT22;3114;48.362;10.994;2022-09-02T01:07:43;16.50;99.90
6164;DHT22;3114;48.362;10.994;2022-09-02T01:10:13;16.60;99.90
6164;DHT22;3114;48.362;10.994;2022-09-02T01:12:41;16.60;99.90
6164;DHT22;3114;48.362;10.994;2022-09-02T01:15:10;16.60;99.90
6164;DHT22;3114;48.362;10.994;2022-09-02T01:17:40;16.50;99.90
6164;DHT22;3114;48.362;10.994;2022-09-02T01:20:11;16.60;99.90
6164;DHT22;3114;48.362;10.994;2022-09-02T01:22:40;16.60;99.90
6164;DHT22;3114;48.362;10.994;2022-09-02T01:25:10;16.60;99.90
6164;DHT22;3114;48.362;10.994;2022-09-02T01:27:38;16.60;99.90
6164;DHT22;3114;48.362;10.994;2022-09-02T01:30:08;16.40;99.90
6164;DHT22;3114;48.362;10.994;2022-09-02T01:32:36;16.40;99.90
6164;DHT22;3114;48.362;10.994;2022-09-02T01:35:04;16.50;99.90
6164;DHT22;3114;48.362;10.994;2022-09-02T01:37:31;16.50;99.90
6164;DHT22;3114;48.362;10.994;2022-09-02T01:40:00;16.40;99.90
6164;DHT22;3114;48.362;10.994;2022-09-02T01:42:27;16.40;99.90
6164;DHT22;3114;48.362;10.994;2022-09-02T01:44:54;16.30;99.90
6164;DHT22;3114;48.362;10.994;2022-09-02T01:47:23;16.30;99.90
6164;DHT22;3114;48.362;10.994;2022-09-02T01:49:50;16.30;99.90
6164;DHT22;3114;48.362;10.994;2022-09-02T01:52:18;16.30;99.90
6164;DHT22;3114;48.362;10.994;2022-09-02T01:54:45;16.30;99.90
6164;DHT22;3114;48.362;10.994;2022-09-02T01:57:14;16.20;99.90
6164;DHT22;3114;48.362;10.994;2022-09-02T01:59:41;16.20;99.90
6164;DHT22;3114;48.362;10.994;2022-09-02T02:02:09;16.20;99.90
6164;DHT22;3114;48.362;10.994;2022-09-02T02:04:36;16.20;99.90
6164;DHT22;3114;48.362;10.994;2022-09-02T02:07:03;16.20;99.90
6164;DHT22;3114;48.362;10.994;2022-09-02T02:09:30;16.20;99.90
6164;DHT22;3114;48.362;10.994;2022-09-02T02:11:57;16.10;99.90
6164;DHT22;3114;48.362;10.994;2022-09-02T02:14:25;16.10;99.90
6164;DHT22;3114;48.362;10.994;2022-09-02T02:16:52;16.10;99.90
6164;DHT22;3114;48.362;10.994;2022-09-02T02:19:19;16.00;99.90
6164;DHT22;3114;48.362;10.994;2022-09-02T02:21:46;15.90;99.90
6164;DHT22;3114;48.362;10.994;2022-09-02T02:24:13;15.90;99.90
6164;DHT22;3114;48.362;10.994;2022-09-02T02:26:40;16.00;99.90
6164;DHT22;3114;48.362;10.994;2022-09-02T02:29:06;15.90;99.90
6164;DHT22;3114;48.362;10.994;2022-09-02T02:31:35;15.90;99.90
6164;DHT22;3114;48.362;10.994;2022-09-02T02:34:02;15.90;99.90
6164;DHT22;3114;48.362;10.994;2022-09-02T02:36:29;15.80;99.90
6164;DHT22;3114;48.362;10.994;2022-09-02T02:38:56;15.80;99.90
6164;DHT22;3114;48.362;10.994;2022-09-02T02:41:23;15.80;99.90
6164;DHT22;3114;48.362;10.994;2022-09-02T02:43:50;15.80;99.90
6164;DHT22;3114;48.362;10.994;2022-09-02T02:46:17;15.80;99.90
6164;DHT22;3114;48.362;10.994;2022-09-02T02:48:45;15.70;99.90
6164;DHT22;3114;48.362;10.994;2022-09-02T02:51:13;15.80;99.90
6164;DHT22;3114;48.362;10.994;2022-09-02T02:53:40;15.80;99.90
6164;DHT22;3114;48.362;10.994;2022-09-02T02:56:07;15.70;99.90
6164;DHT22;3114;48.362;10.994;2022-09-02T02:58:34;15.70;99.90
6164;DHT22;3114;48.362;10.994;2022-09-02T03:01:01;15.70;99.90
6164;DHT22;3114;48.362;10.994;2022-09-02T03:03:28;15.70;99.90
6164;DHT22;3114;48.362;10.994;2022-09-02T03:05:58;15.60;99.90
6164;DHT22;3114;48.362;10.994;2022-09-02T03:08:25;15.60;99.90
6164;DHT22;3114;48.362;10.994;2022-09-02T03:10:53;15.60;99.90
6164;DHT22;3114;48.362;10.994;2022-09-02T03:13:21;15.50;99.90
6164;DHT22;3114;48.362;10.994;2022-09-02T03:15:49;15.50;99.90
6164;DHT22;3114;48.362;10.994;2022-09-02T03:18:16;15.50;99.90
6164;DHT22;3114;48.362;10.994;2022-09-02T03:20:44;15.50;99.90
6164;DHT22;3114;48.362;10.994;2022-09-02T03:23:12;15.50;99.90
6164;DHT22;3114;48.362;10.994;2022-09-02T03:25:41;15.50;99.90
6164;DHT22;3114;48.362;10.994;2022-09-02T03:28:09;15.50;99.90
6164;DHT22;3114;48.362;10.994;2022-09-02T03:30:36;15.50;99.90
6164;DHT22;3114;48.362;10.994;2022-09-02T03:33:04;15.60;99.90
6164;DHT22;3114;48.362;10.994;2022-09-02T03:35:33;15.50;99.90
6164;DHT22;3114;48.362;10.994;2022-09-02T03:38:03;15.50;99.90
6164;DHT22;3114;48.362;10.994;2022-09-02T03:40:31;15.40;99.90
6164;DHT22;3114;48.362;10.994;2022-09-02T03:42:58;15.40;99.90
6164;DHT22;3114;48.362;10.994;2022-09-02T03:45:25;15.40;99.90
6164;DHT22;3114;48.362;10.994;2022-09-02T03:47:55;15.40;99.90
6164;DHT22;3114;48.362;10.994;2022-09-02T03:50:25;15.40;99.90
6164;DHT22;3114;48.362;10.994;2022-09-02T03:52:52;15.40;99.90
6164;DHT22;3114;48.362;10.994;2022-09-02T03:55:20;15.30;99.90
6164;DHT22;3114;48.362;10.994;2022-09-02T03:57:48;15.30;99.90
6164;DHT22;3114;48.362;10.994;2022-09-02T04:00:18;15.20;99.90
6164;DHT22;3114;48.362;10.994;2022-09-02T04:02:47;15.20;99.90
6164;DHT22;3114;48.362;10.994;2022-09-02T04:05:14;15.20;99.90
6164;DHT22;3114;48.362;10.994;2022-09-02T04:07:42;15.10;99.90
6164;DHT22;3114;48.362;10.994;2022-09-02T04:10:09;15.10;99.90
6164;DHT22;3114;48.362;10.994;2022-09-02T04:15:08;15.00;99.90
6164;DHT22;3114;48.362;10.994;2022-09-02T04:17:35;15.00;99.90
6164;DHT22;3114;48.362;10.994;2022-09-02T04:20:03;15.00;99.90
6164;DHT22;3114;48.362;10.994;2022-09-02T04:22:31;15.00;99.90
6164;DHT22;3114;48.362;10.994;2022-09-02T04:24:57;15.00;99.90
6164;DHT22;3114;48.362;10.994;2022-09-02T04:27:24;15.00;99.90
6164;DHT22;3114;48.362;10.994;2022-09-02T04:29:51;15.00;99.90
6164;DHT22;3114;48.362;10.994;2022-09-02T04:32:20;15.00;99.90
6164;DHT22;3114;48.362;10.994;2022-09-02T04:34:47;15.00;99.90
6164;DHT22;3114;48.362;10.994;2022-09-02T04:37:18;14.90;99.90
6164;DHT22;3114;48.362;10.994;2022-09-02T04:39:45;15.00;99.90
6164;DHT22;3114;48.362;10.994;2022-09-02T04:42:12;14.90;99.90
6164;DHT22;3114;48.362;10.994;2022-09-02T04:44:39;14.90;99.90
6164;DHT22;3114;48.362;10.994;2022-09-02T04:47:06;15.00;99.90
6164;DHT22;3114;48.362;10.994;2022-09-02T04:49:34;15.00;99.90
6164;DHT22;3114;48.362;10.994;2022-09-02T04:52:01;15.00;99.90
6164;DHT22;3114;48.362;10.994;2022-09-02T04:54:29;15.10;99.90
6164;DHT22;3114;48.362;10.994;2022-09-02T04:56:56;15.00;99.90
6164;DHT22;3114;48.362;10.994;2022-09-02T04:59:23;15.00;99.90
6164;DHT22;3114;48.362;10.994;2022-09-02T05:01:50;15.00;99.90
6164;DHT22;3114;48.362;10.994;2022-09-02T05:04:17;15.00;99.90
6164;DHT22;3114;48.362;10.994;2022-09-02T05:06:45;15.00;99.90
6164;DHT22;3114;48.362;10.994;2022-09-02T05:09:19;14.60;99.90
6164;DHT22;3114;48.362;10.994;2022-09-02T05:11:46;14.90;99.90
6164;DHT22;3114;48.362;10.994;2022-09-02T05:14:13;14.80;99.90
6164;DHT22;3114;48.362;10.994;2022-09-02T05:16:41;14.80;99.90
6164;DHT22;3114;48.362;10.994;2022-09-02T05:19:10;14.80;99.90
6164;DHT22;3114;48.362;10.994;2022-09-02T05:21:39;14.90;99.90
6164;DHT22;3114;48.362;10.994;2022-09-02T05:24:09;15.00;99.90
6164;DHT22;3114;48.362;10.994;2022-09-02T05:26:36;14.60;99.90
6164;DHT22;3114;48.362;10.994;2022-09-02T05:29:04;14.50;99.90
6164;DHT22;3114;48.362;10.994;2022-09-02T05:31:33;14.40;99.90
6164;DHT22;3114;48.362;10.994;2022-09-02T05:34:05;14.40;99.90
6164;DHT22;3114;48.362;10.994;2022-09-02T05:36:42;14.60;99.90
6164;DHT22;3114;48.362;10.994;2022-09-02T05:42:42;14.40;99.90
6164;DHT22;3114;48.362;10.994;2022-09-02T05:45:21;14.40;99.90
6164;DHT22;3114;48.362;10.994;2022-09-02T05:47:49;14.50;99.90
6164;DHT22;3114;48.362;10.994;2022-09-02T05:50:16;14.60;99.90
6164;DHT22;3114;48.362;10.994;2022-09-02T05:52:43;14.60;99.90
6164;DHT22;3114;48.362;10.994;2022-09-02T05:55:11;14.70;99.90
6164;DHT22;3114;48.362;10.994;2022-09-02T05:57:41;14.60;99.90
6164;DHT22;3114;48.362;10.994;2022-09-02T06:00:11;14.60;99.90
6164;DHT22;3114;48.362;10.994;2022-09-02T06:02:38;14.70;99.90
6164;DHT22;3114;48.362;10.994;2022-09-02T06:05:06;14.60;99.90
6164;DHT22;3114;48.362;10.994;2022-09-02T06:07:36;14.80;99.90
6164;DHT22;3114;48.362;10.994;2022-09-02T06:10:04;14.90;99.90
6164;DHT22;3114;48.362;10.994;2022-09-02T06:12:32;14.90;99.90
6164;DHT22;3114;48.362;10.994;2022-09-02T06:15:00;15.10;99.90
6164;DHT22;3114;48.362;10.994;2022-09-02T06:17:29;15.20;99.90
6164;DHT22;3114;48.362;10.994;2022-09-02T06:19:56;15.20;99.90
6164;DHT22;3114;48.362;10.994;2022-09-02T06:22:23;15.30;99.90
6164;DHT22;3114;48.362;10.994;2022-09-02T06:24:49;15.30;99.90
6164;DHT22;3114;48.362;10.994;2022-09-02T06:27:17;15.30;99.90
6164;DHT22;3114;48.362;10.994;2022-09-02T06:29:43;15.40;99.90
6164;DHT22;3114;48.362;10.994;2022-09-02T06:32:12;15.40;99.90
6164;DHT22;3114;48.362;10.994;2022-09-02T06:34:39;15.50;99.90
6164;DHT22;3114;48.362;10.994;2022-09-02T06:37:06;15.70;99.90
6164;DHT22;3114;48.362;10.994;2022-09-02T06:39:33;15.60;99.90
6164;DHT22;3114;48.362;10.994;2022-09-02T06:42:00;15.50;99.90
6164;DHT22;3114;48.362;10.994;2022-09-02T06:44:31;15.60;99.90
6164;DHT22;3114;48.362;10.994;2022-09-02T06:46:59;15.60;99.90
6164;DHT22;3114;48.362;10.994;2022-09-02T06:49:28;15.70;99.90
6164;DHT22;3114;48.362;10.994;2022-09-02T06:51:55;15.80;99.90
6164;DHT22;3114;48.362;10.994;2022-09-02T06:54:24;15.90;99.90
6164;DHT22;3114;48.362;10.994;2022-09-02T06:56:52;16.00;99.90
6164;DHT22;3114;48.362;10.994;2022-09-02T06:59:20;16.00;99.90
6164;DHT22;3114;48.362;10.994;2022-09-02T07:01:47;16.10;99.90
6164;DHT22;3114;48.362;10.994;2022-09-02T07:04:15;16.10;99.90
6164;DHT22;3114;48.362;10.994;2022-09-02T07:07:03;16.10;99.90
6164;DHT22;3114;48.362;10.994;2022-09-02T07:09:30;16.00;99.90
6164;DHT22;3114;48.362;10.994;2022-09-02T07:11:59;16.00;99.90
6164;DHT22;3114;48.362;10.994;2022-09-02T07:14:26;16.10;99.90
6164;DHT22;3114;48.362;10.994;2022-09-02T07:16:55;16.30;99.90
6164;DHT22;3114;48.362;10.994;2022-09-02T07:19:24;16.20;99.90
6164;DHT22;3114;48.362;10.994;2022-09-02T07:21:51;16.20;99.90
6164;DHT22;3114;48.362;10.994;2022-09-02T07:24:20;16.30;99.90
6164;DHT22;3114;48.362;10.994;2022-09-02T07:26:47;16.40;99.90
6164;DHT22;3114;48.362;10.994;2022-09-02T07:29:15;16.40;99.90
6164;DHT22;3114;48.362;10.994;2022-09-02T07:31:44;16.50;99.90
6164;DHT22;3114;48.362;10.994;2022-09-02T07:34:11;16.50;99.90
6164;DHT22;3114;48.362;10.994;2022-09-02T07:36:39;16.60;99.90
6164;DHT22;3114;48.362;10.994;2022-09-02T07:39:08;16.70;99.90
6164;DHT22;3114;48.362;10.994;2022-09-02T07:41:38;16.70;99.90
6164;DHT22;3114;48.362;10.994;2022-09-02T07:44:06;16.80;99.90
6164;DHT22;3114;48.362;10.994;2022-09-02T07:46:34;16.70;99.90
6164;DHT22;3114;48.362;10.994;2022-09-02T07:49:03;16.80;99.90
6164;DHT22;3114;48.362;10.994;2022-09-02T07:51:32;16.80;99.90
6164;DHT22;3114;48.362;10.994;2022-09-02T07:54:00;16.90;99.90
6164;DHT22;3114;48.362;10.994;2022-09-02T07:56:27;17.00;99.90
6164;DHT22;3114;48.362;10.994;2022-09-02T07:58:55;17.00;99.90
6164;DHT22;3114;48.362;10.994;2022-09-02T08:01:22;16.90;99.90
6164;DHT22;3114;48.362;10.994;2022-09-02T08:03:50;17.00;99.90
6164;DHT22;3114;48.362;10.994;2022-09-02T08:06:18;16.90;99.90
6164;DHT22;3114;48.362;10.994;2022-09-02T08:08:45;17.40;99.90
6164;DHT22;3114;48.362;10.994;2022-09-02T08:11:12;17.00;99.90
6164;DHT22;3114;48.362;10.994;2022-09-02T08:13:40;17.00;99.90
6164;DHT22;3114;48.362;10.994;2022-09-02T08:16:12;17.00;99.90
6164;DHT22;3114;48.362;10.994;2022-09-02T08:18:39;17.10;99.90
6164;DHT22;3114;48.362;10.994;2022-09-02T08:21:06;17.00;99.90
6164;DHT22;3114;48.362;10.994;2022-09-02T08:23:33;17.00;99.90
6164;DHT22;3114;48.362;10.994;2022-09-02T08:26:01;17.00;99.90
6164;DHT22;3114;48.362;10.994;2022-09-02T08:28:28;17.00;99.90
6164;DHT22;3114;48.362;10.994;2022-09-02T08:30:56;17.00;99.90
6164;DHT22;3114;48.362;10.994;2022-09-02T08:33:25;17.10;99.90
6164;DHT22;3114;48.362;10.994;2022-09-02T08:35:53;17.20;99.90
6164;DHT22;3114;48.362;10.994;2022-09-02T08:38:20;17.30;99.90
6164;DHT22;3114;48.362;10.994;2022-09-02T08:40:47;17.40;99.90
6164;DHT22;3114;48.362;10.994;2022-09-02T08:43:26;17.40;99.90
6164;DHT22;3114;48.362;10.994;2022-09-02T08:45:58;17.50;99.90
6164;DHT22;3114;48.362;10.994;2022-09-02T08:48:33;17.50;99.90
6164;DHT22;3114;48.362;10.994;2022-09-02T08:51:04;17.50;99.90
6164;DHT22;3114;48.362;10.994;2022-09-02T08:53:36;17.50;99.90
6164;DHT22;3114;48.362;10.994;2022-09-02T08:58:38;17.50;99.90
6164;DHT22;3114;48.362;10.994;2022-09-02T09:01:21;17.60;99.90
6164;DHT22;3114;48.362;10.994;2022-09-02T09:04:03;17.60;99.90
6164;DHT22;3114;48.362;10.994;2022-09-02T09:06:38;17.70;99.90
6164;DHT22;3114;48.362;10.994;2022-09-02T09:09:14;17.70;99.90
6164;DHT22;3114;48.362;10.994;2022-09-02T09:11:47;17.70;99.90
6164;DHT22;3114;48.362;10.994;2022-09-02T09:14:22;17.70;99.90
6164;DHT22;3114;48.362;10.994;2022-09-02T09:16:57;17.10;99.90
6164;DHT22;3114;48.362;10.994;2022-09-02T09:19:34;17.80;99.90
6164;DHT22;3114;48.362;10.994;2022-09-02T09:22:08;17.80;99.90
6164;DHT22;3114;48.362;10.994;2022-09-02T09:24:39;17.90;99.90
6164;DHT22;3114;48.362;10.994;2022-09-02T09:27:12;17.90;99.90
6164;DHT22;3114;48.362;10.994;2022-09-02T09:29:44;18.20;99.90
6164;DHT22;3114;48.362;10.994;2022-09-02T09:32:20;18.20;99.90
6164;DHT22;3114;48.362;10.994;2022-09-02T09:35:03;18.40;99.90
6164;DHT22;3114;48.362;10.994;2022-09-02T09:37:34;18.40;99.90
6164;DHT22;3114;48.362;10.994;2022-09-02T09:40:24;18.40;99.90
6164;DHT22;3114;48.362;10.994;2022-09-02T09:42:54;18.50;99.90
6164;DHT22;3114;48.362;10.994;2022-09-02T09:45:27;18.50;99.90
6164;DHT22;3114;48.362;10.994;2022-09-02T09:48:17;18.50;99.90
6164;DHT22;3114;48.362;10.994;2022-09-02T09:51:09;18.50;99.90
6164;DHT22;3114;48.362;10.994;2022-09-02T09:53:37;18.60;99.90
6164;DHT22;3114;48.362;10.994;2022-09-02T09:56:06;18.70;99.90
6164;DHT22;3114;48.362;10.994;2022-09-02T09:58:34;18.80;99.90
6164;DHT22;3114;48.362;10.994;2022-09-02T10:01:10;18.80;99.90
6164;DHT22;3114;48.362;10.994;2022-09-02T10:03:41;18.90;99.90
6164;DHT22;3114;48.362;10.994;2022-09-02T10:06:19;18.90;99.90
6164;DHT22;3114;48.362;10.994;2022-09-02T10:08:51;18.90;99.90
6164;DHT22;3114;48.362;10.994;2022-09-02T10:11:21;19.00;99.90
6164;DHT22;3114;48.362;10.994;2022-09-02T10:13:48;18.80;99.90
6164;DHT22;3114;48.362;10.994;2022-09-02T10:16:25;18.80;99.90
6164;DHT22;3114;48.362;10.994;2022-09-02T10:18:55;18.90;99.90
6164;DHT22;3114;48.362;10.994;2022-09-02T10:21:40;18.90;99.90
6164;DHT22;3114;48.362;10.994;2022-09-02T10:24:24;19.00;99.90
6164;DHT22;3114;48.362;10.994;2022-09-02T10:26:57;19.00;99.90
6164;DHT22;3114;48.362;10.994;2022-09-02T10:32:25;19.20;99.90
6164;DHT22;3114;48.362;10.994;2022-09-02T10:37:37;19.20;99.90
6164;DHT22;3114;48.362;10.994;2022-09-02T10:40:09;19.40;99.90
6164;DHT22;3114;48.362;10.994;2022-09-02T10:42:47;19.50;99.90
6164;DHT22;3114;48.362;10.994;2022-09-02T10:45:23;19.60;99.90
6164;DHT22;3114;48.362;10.994;2022-09-02T10:48:01;19.70;99.90
6164;DHT22;3114;48.362;10.994;2022-09-02T10:50:37;19.90;99.90
6164;DHT22;3114;48.362;10.994;2022-09-02T10:53:18;19.90;99.90
6164;DHT22;3114;48.362;10.994;2022-09-02T10:55:53;19.90;99.90
6164;DHT22;3114;48.362;10.994;2022-09-02T10:58:32;20.00;99.90
6164;DHT22;3114;48.362;10.994;2022-09-02T11:01:02;20.10;99.90
6164;DHT22;3114;48.362;10.994;2022-09-02T11:03:34;20.20;99.90
6164;DHT22;3114;48.362;10.994;2022-09-02T11:06:08;20.30;99.90
6164;DHT22;3114;48.362;10.994;2022-09-02T11:08:41;20.30;99.90
6164;DHT22;3114;48.362;10.994;2022-09-02T11:11:12;20.50;99.90
6164;DHT22;3114;48.362;10.994;2022-09-02T11:13:55;20.50;99.90
6164;DHT22;3114;48.362;10.994;2022-09-02T11:16:27;20.60;99.90
6164;DHT22;3114;48.362;10.994;2022-09-02T11:19:00;20.70;99.90
6164;DHT22;3114;48.362;10.994;2022-09-02T11:21:35;20.90;99.90
6164;DHT22;3114;48.362;10.994;2022-09-02T11:24:09;21.20;99.90
6164;DHT22;3114;48.362;10.994;2022-09-02T11:26:45;21.30;99.90
6164;DHT22;3114;48.362;10.994;2022-09-02T11:29:18;21.50;99.90
6164;DHT22;3114;48.362;10.994;2022-09-02T11:31:50;21.70;99.90
6164;DHT22;3114;48.362;10.994;2022-09-02T11:34:29;21.90;99.90
6164;DHT22;3114;48.362;10.994;2022-09-02T11:36:59;22.00;99.90
6164;DHT22;3114;48.362;10.994;2022-09-02T11:39:32;22.20;99.90
6164;DHT22;3114;48.362;10.994;2022-09-02T11:42:18;22.40;99.90
6164;DHT22;3114;48.362;10.994;2022-09-02T11:45:07;22.80;99.90
6164;DHT22;3114;48.362;10.994;2022-09-02T11:47:55;23.20;99.90
6164;DHT22;3114;48.362;10.994;2022-09-02T11:53:17;25.40;99.90
6164;DHT22;3114;48.362;10.994;2022-09-02T11:55:49;28.70;99.90
6164;DHT22;3114;48.362;10.994;2022-09-02T11:58:36;33.00;99.90
6164;DHT22;3114;48.362;10.994;2022-09-02T12:01:15;34.80;99.90
6164;DHT22;3114;48.362;10.994;2022-09-02T12:03:45;37.10;99.90
6164;DHT22;3114;48.362;10.994;2022-09-02T12:06:17;38.90;99.90
6164;DHT22;3114;48.362;10.994;2022-09-02T12:09:05;40.20;99.90
6164;DHT22;3114;48.362;10.994;2022-09-02T12:11:44;41.00;99.90
6164;DHT22;3114;48.362;10.994;2022-09-02T12:28:52;43.00;99.90
6164;DHT22;3114;48.362;10.994;2022-09-02T12:36:51;44.70;99.90
6164;DHT22;3114;48.362;10.994;2022-09-02T12:39:53;44.50;99.90
6164;DHT22;3114;48.362;10.994;2022-09-02T12:42:25;45.00;99.90
6164;DHT22;3114;48.362;10.994;2022-09-02T12:45:04;44.60;99.90
6164;DHT22;3114;48.362;10.994;2022-09-02T12:47:45;45.50;99.90
6164;DHT22;3114;48.362;10.994;2022-09-02T12:50:22;45.00;99.90
6164;DHT22;3114;48.362;10.994;2022-09-02T12:55:22;45.70;99.90
6164;DHT22;3114;48.362;10.994;2022-09-02T12:57:51;46.60;99.90
6164;DHT22;3114;48.362;10.994;2022-09-02T13:00:32;46.60;99.90
6164;DHT22;3114;48.362;10.994;2022-09-02T13:03:12;46.20;99.90
6164;DHT22;3114;48.362;10.994;2022-09-02T13:05:52;47.00;99.90
6164;DHT22;3114;48.362;10.994;2022-09-02T13:11:34;47.40;99.90
6164;DHT22;3114;48.362;10.994;2022-09-02T13:25:49;48.10;99.90
6164;DHT22;3114;48.362;10.994;2022-09-02T13:31:31;47.50;99.90
6164;DHT22;3114;48.362;10.994;2022-09-02T13:34:00;48.50;99.90
6164;DHT22;3114;48.362;10.994;2022-09-02T13:41:35;47.80;99.90
6164;DHT22;3114;48.362;10.994;2022-09-02T13:44:07;47.60;99.90
6164;DHT22;3114;48.362;10.994;2022-09-02T13:49:18;46.30;99.90
6164;DHT22;3114;48.362;10.994;2022-09-02T13:51:50;45.00;99.90
6164;DHT22;3114;48.362;10.994;2022-09-02T13:54:30;43.70;99.90
6164;DHT22;3114;48.362;10.994;2022-09-02T13:59:37;41.50;99.90
6164;DHT22;3114;48.362;10.994;2022-09-02T14:07:30;43.30;99.90
6164;DHT22;3114;48.362;10.994;2022-09-02T14:10:00;43.40;99.90
6164;DHT22;3114;48.362;10.994;2022-09-02T14:12:31;43.30;99.90
6164;DHT22;3114;48.362;10.994;2022-09-02T14:17:27;42.90;99.90
6164;DHT22;3114;48.362;10.994;2022-09-02T14:20:09;42.10;99.90
6164;DHT22;3114;48.362;10.994;2022-09-02T14:22:42;42.90;99.90
6164;DHT22;3114;48.362;10.994;2022-09-02T14:25:11;42.90;99.90
6164;DHT22;3114;48.362;10.994;2022-09-02T14:27:39;42.30;99.90
6164;DHT22;3114;48.362;10.994;2022-09-02T14:30:07;41.10;99.90
6164;DHT22;3114;48.362;10.994;2022-09-02T14:32:35;39.80;99.90
6164;DHT22;3114;48.362;10.994;2022-09-02T14:35:19;38.80;99.90
6164;DHT22;3114;48.362;10.994;2022-09-02T14:37:51;38.10;99.90
6164;DHT22;3114;48.362;10.994;2022-09-02T14:40:31;37.20;99.90
6164;DHT22;3114;48.362;10.994;2022-09-02T14:42:59;36.50;99.90
6164;DHT22;3114;48.362;10.994;2022-09-02T14:45:28;35.70;99.90
6164;DHT22;3114;48.362;10.994;2022-09-02T14:50:27;34.60;99.90
6164;DHT22;3114;48.362;10.994;2022-09-02T14:52:58;34.10;99.90
6164;DHT22;3114;48.362;10.994;2022-09-02T14:55:47;33.60;99.90
6164;DHT22;3114;48.362;10.994;2022-09-02T14:58:18;33.00;99.90
6164;DHT22;3114;48.362;10.994;2022-09-02T15:00:48;32.10;99.90
6164;DHT22;3114;48.362;10.994;2022-09-02T15:03:17;31.40;99.90
6164;DHT22;3114;48.362;10.994;2022-09-02T15:05:46;31.10;99.90
6164;DHT22;3114;48.362;10.994;2022-09-02T15:08:13;30.70;99.90
6164;DHT22;3114;48.362;10.994;2022-09-02T15:10:41;30.40;99.90
6164;DHT22;3114;48.362;10.994;2022-09-02T15:13:11;30.30;99.90
6164;DHT22;3114;48.362;10.994;2022-09-02T15:15:38;30.00;99.90
6164;DHT22;3114;48.362;10.994;2022-09-02T15:18:05;29.60;99.90
6164;DHT22;3114;48.362;10.994;2022-09-02T15:20:32;29.40;99.90
6164;DHT22;3114;48.362;10.994;2022-09-02T15:23:00;28.90;99.90
6164;DHT22;3114;48.362;10.994;2022-09-02T15:25:27;28.90;99.90
6164;DHT22;3114;48.362;10.994;2022-09-02T15:27:54;28.80;99.90
6164;DHT22;3114;48.362;10.994;2022-09-02T15:30:21;28.60;99.90
6164;DHT22;3114;48.362;10.994;2022-09-02T15:32:48;28.20;99.90
6164;DHT22;3114;48.362;10.994;2022-09-02T15:35:15;28.00;99.90
6164;DHT22;3114;48.362;10.994;2022-09-02T15:37:42;27.80;99.90
6164;DHT22;3114;48.362;10.994;2022-09-02T15:40:11;27.80;99.90
6164;DHT22;3114;48.362;10.994;2022-09-02T15:42:38;27.60;99.90
6164;DHT22;3114;48.362;10.994;2022-09-02T15:45:06;27.80;99.90
6164;DHT22;3114;48.362;10.994;2022-09-02T15:47:35;27.50;99.90
6164;DHT22;3114;48.362;10.994;2022-09-02T15:50:03;27.40;99.90
6164;DHT22;3114;48.362;10.994;2022-09-02T15:52:30;27.30;99.90
6164;DHT22;3114;48.362;10.994;2022-09-02T15:54:58;27.20;99.90
6164;DHT22;3114;48.362;10.994;2022-09-02T15:57:27;27.10;99.90
6164;DHT22;3114;48.362;10.994;2022-09-02T15:59:54;27.00;99.90
6164;DHT22;3114;48.362;10.994;2022-09-02T16:02:21;26.70;99.90
6164;DHT22;3114;48.362;10.994;2022-09-02T16:04:48;26.50;99.90
6164;DHT22;3114;48.362;10.994;2022-09-02T16:07:15;26.40;99.90
6164;DHT22;3114;48.362;10.994;2022-09-02T16:09:42;26.00;99.90
6164;DHT22;3114;48.362;10.994;2022-09-02T16:12:09;25.80;99.90
6164;DHT22;3114;48.362;10.994;2022-09-02T16:14:38;25.70;99.90
6164;DHT22;3114;48.362;10.994;2022-09-02T16:17:07;25.80;99.90
6164;DHT22;3114;48.362;10.994;2022-09-02T16:19:34;25.70;99.90
6164;DHT22;3114;48.362;10.994;2022-09-02T16:22:01;25.60;99.90
6164;DHT22;3114;48.362;10.994;2022-09-02T16:24:28;25.30;99.90
6164;DHT22;3114;48.362;10.994;2022-09-02T16:26:56;25.30;99.90
6164;DHT22;3114;48.362;10.994;2022-09-02T16:29:23;25.10;99.90
6164;DHT22;3114;48.362;10.994;2022-09-02T16:31:53;25.10;99.90
6164;DHT22;3114;48.362;10.994;2022-09-02T16:34:20;25.00;99.90
6164;DHT22;3114;48.362;10.994;2022-09-02T16:36:48;24.90;99.90
6164;DHT22;3114;48.362;10.994;2022-09-02T16:39:16;24.80;99.90
6164;DHT22;3114;48.362;10.994;2022-09-02T16:44:13;24.60;99.90
6164;DHT22;3114;48.362;10.994;2022-09-02T16:46:42;24.30;99.90
6164;DHT22;3114;48.362;10.994;2022-09-02T16:49:11;24.40;99.90
6164;DHT22;3114;48.362;10.994;2022-09-02T16:51:39;24.20;99.90
6164;DHT22;3114;48.362;10.994;2022-09-02T16:54:07;24.20;99.90
6164;DHT22;3114;48.362;10.994;2022-09-02T16:56:34;24.20;99.90
6164;DHT22;3114;48.362;10.994;2022-09-02T16:59:03;24.00;99.90
6164;DHT22;3114;48.362;10.994;2022-09-02T17:01:32;23.90;99.90
6164;DHT22;3114;48.362;10.994;2022-09-02T17:03:59;23.70;99.90
6164;DHT22;3114;48.362;10.994;2022-09-02T17:06:28;23.80;99.90
6164;DHT22;3114;48.362;10.994;2022-09-02T17:08:56;23.80;99.90
6164;DHT22;3114;48.362;10.994;2022-09-02T17:11:25;23.80;99.90
6164;DHT22;3114;48.362;10.994;2022-09-02T17:13:55;23.60;99.90
6164;DHT22;3114;48.362;10.994;2022-09-02T17:16:24;23.40;99.90
6164;DHT22;3114;48.362;10.994;2022-09-02T17:18:51;23.50;99.90
6164;DHT22;3114;48.362;10.994;2022-09-02T17:21:22;23.40;99.90
6164;DHT22;3114;48.362;10.994;2022-09-02T17:23:52;23.30;99.90